Time;durP1;ratioP1;P1;durP2;ratioP2;P2;SDS_P1;SDS_P2;PMS_P1;PMS_P2;Temp;Humidity;BMP_temperature;BMP_pressure;BME280_temperature;BME280_humidity;BME280_pressure;Samples;Min_cycle;Max_cycle;Signal;HPM_P1;HPM_P2
2022/09/06 00:00:27;;;;;;;2.13;1.80;;;23.90;51.90;;;;;;4993533;28;20045;-53
2022/09/06 00:02:57;;;;;;;4.07;2.13;;;23.90;52.10;;;;;;4991875;28;20038;-52
2022/09/06 00:05:31;;;;;;;3.40;1.87;;;23.80;52.90;;;;;;4997668;28;20042;-53
2022/09/06 00:07:59;;;;;;;3.80;1.80;;;23.70;53.60;;;;;;4995151;28;20285;-51
2022/09/06 00:10:29;;;;;;;4.38;2.60;;;23.60;53.50;;;;;;5001127;28;20045;-53
2022/09/06 00:13:05;;;;;;;2.28;1.90;;;23.60;53.60;;;;;;5009685;28;20120;-48
2022/09/06 00:15:32;;;;;;;2.70;1.90;;;23.60;54.10;;;;;;5000365;28;20046;-51
2022/09/06 00:18:01;;;;;;;3.40;1.90;;;23.50;53.90;;;;;;5001242;28;20414;-51
2022/09/06 00:20:31;;;;;;;2.97;2.17;;;23.40;54.60;;;;;;4996370;28;20039;-53
2022/09/06 00:23:03;;;;;;;2.53;1.55;;;23.40;55.70;;;;;;4988703;28;20047;-52
2022/09/06 00:25:32;;;;;;;3.83;1.90;;;23.40;55.90;;;;;;5001473;28;20180;-50
2022/09/06 00:28:02;;;;;;;3.17;2.10;;;23.30;56.40;;;;;;5009598;28;20100;-52
2022/09/06 00:30:31;;;;;;;2.33;2.13;;;23.30;56.30;;;;;;4985397;28;20096;-52
2022/09/06 00:32:57;;;;;;;3.53;2.13;;;23.30;56.00;;;;;;5005309;28;20045;-49
2022/09/06 00:35:26;;;;;;;2.00;1.85;;;23.30;56.00;;;;;;5004914;28;20411;-52
2022/09/06 00:38:02;;;;;;;1.73;1.48;;;23.20;55.60;;;;;;5004563;28;20557;-53
2022/09/06 00:40:33;;;;;;;2.42;1.55;;;23.20;56.50;;;;;;4995113;28;20096;-50
2022/09/06 00:43:05;;;;;;;1.98;1.42;;;23.20;56.70;;;;;;5001214;28;20503;-53
2022/09/06 00:45:33;;;;;;;;;;;23.20;56.90;;;;;;4998429;28;20100;-49
2022/09/06 00:48:04;;;;;;;2.88;1.60;;;23.20;55.70;;;;;;5001707;28;19944;-52
2022/09/06 00:50:36;;;;;;;2.35;1.38;;;23.10;56.60;;;;;;5012499;28;20038;-49
2022/09/06 00:53:05;;;;;;;2.08;1.70;;;23.00;56.90;;;;;;5012448;28;20417;-51
2022/09/06 00:55:35;;;;;;;;;;;23.00;57.20;;;;;;4997525;28;20118;-48
2022/09/06 00:58:02;;;;;;;2.35;1.52;;;23.00;56.40;;;;;;4974229;28;19926;-49
2022/09/06 01:00:29;;;;;;;2.75;1.70;;;22.90;57.40;;;;;;4997924;28;20034;-53
2022/09/06 01:02:58;;;;;;;3.83;2.17;;;22.90;57.80;;;;;;5004108;28;20053;-50
2022/09/06 01:05:50;;;;;;;2.40;1.70;;;22.90;58.00;;;;;;5012136;28;20046;-53
2022/09/06 01:08:26;;;;;;;4.80;2.05;;;22.90;59.20;;;;;;5001693;28;20037;-53
2022/09/06 01:11:09;;;;;;;2.55;1.92;;;22.80;59.80;;;;;;5002317;28;20116;-53
2022/09/06 01:14:00;;;;;;;2.00;1.80;;;22.80;59.00;;;;;;4973220;28;20547;-50
2022/09/06 01:16:50;;;;;;;1.98;1.75;;;22.80;59.30;;;;;;4986590;28;20045;-54
2022/09/06 01:19:24;;;;;;;2.17;1.98;;;22.80;60.30;;;;;;4998050;28;20520;-50
2022/09/06 01:21:51;;;;;;;;;;;22.70;59.20;;;;;;4994527;28;20093;-52
2022/09/06 01:24:47;;;;;;;3.88;2.30;;;22.80;58.30;;;;;;4974107;28;20339;-52
2022/09/06 01:27:19;;;;;;;2.92;1.88;;;22.80;60.60;;;;;;5003761;28;20131;-53
2022/09/06 01:30:13;;;;;;;1.95;1.80;;;22.70;60.10;;;;;;5003927;28;20034;-49
2022/09/06 01:33:36;;;;;;;2.20;2.00;;;22.70;61.10;;;;;;4997558;28;20088;-51
2022/09/06 01:36:09;;;;;;;2.58;2.30;;;22.70;61.50;;;;;;4894144;29;20054;-50
2022/09/06 01:38:36;;;;;;;3.10;1.80;;;22.60;60.90;;;;;;4988483;28;20053;-48
2022/09/06 01:41:06;;;;;;;2.38;2.08;;;22.60;60.90;;;;;;5000337;28;20057;-53
2022/09/06 01:43:38;;;;;;;1.95;1.85;;;22.60;61.20;;;;;;4991976;28;20458;-49
2022/09/06 01:46:32;;;;;;;2.28;2.08;;;22.60;61.70;;;;;;4998491;28;20105;-51
2022/09/06 01:49:14;;;;;;;4.25;2.25;;;22.60;62.50;;;;;;5004107;28;20490;-51
2022/09/06 01:52:16;;;;;;;2.78;1.77;;;22.60;62.50;;;;;;5009847;28;20049;-53
2022/09/06 01:55:30;;;;;;;3.88;1.98;;;22.60;62.70;;;;;;4990218;28;20062;-51
2022/09/06 01:58:14;;;;;;;2.17;1.98;;;22.60;62.80;;;;;;4970256;28;20104;-51
2022/09/06 02:00:51;;;;;;;2.30;2.10;;;22.60;62.50;;;;;;4997480;28;20043;-52
2022/09/06 02:03:28;;;;;;;3.63;2.28;;;22.60;62.70;;;;;;4977411;28;20104;-53
2022/09/06 02:06:13;;;;;;;2.55;2.35;;;22.50;61.70;;;;;;5000167;28;20038;-51
2022/09/06 02:08:45;;;;;;;3.17;2.65;;;22.50;62.80;;;;;;5000405;28;20045;-49
2022/09/06 02:11:15;;;;;;;3.65;2.20;;;22.50;62.60;;;;;;5002225;28;20682;-51
2022/09/06 02:13:49;;;;;;;3.95;2.60;;;22.50;62.10;;;;;;5003151;28;20093;-52
2022/09/06 02:16:22;;;;;;;2.63;2.42;;;22.60;63.00;;;;;;5002654;28;20050;-53
2022/09/06 02:19:02;;;;;;;3.15;2.85;;;22.50;62.40;;;;;;5007452;28;20486;-53
2022/09/06 02:21:36;;;;;;;4.07;2.53;;;22.50;63.00;;;;;;4999222;28;20042;-52
2022/09/06 02:24:10;;;;;;;5.15;3.15;;;22.50;62.90;;;;;;5005348;28;20454;-52
2022/09/06 02:26:41;;;;;;;3.47;2.57;;;22.40;62.80;;;;;;5004278;28;20042;-53
2022/09/06 02:29:08;;;;;;;2.33;2.15;;;22.40;62.70;;;;;;5005349;28;20042;-52
2022/09/06 02:31:46;;;;;;;2.60;2.40;;;22.30;62.80;;;;;;4995474;28;20065;-52
2022/09/06 02:34:16;;;;;;;2.97;2.55;;;22.30;63.60;;;;;;4980713;28;20049;-53
2022/09/06 02:36:44;;;;;;;2.97;2.63;;;22.30;63.20;;;;;;5001413;28;20053;-51
2022/09/06 02:39:13;;;;;;;2.35;2.15;;;22.40;63.10;;;;;;5011452;28;20457;-50
2022/09/06 02:41:42;;;;;;;2.63;2.20;;;22.40;63.30;;;;;;5002250;28;20042;-53
2022/09/06 02:44:09;;;;;;;4.13;2.42;;;22.30;63.30;;;;;;5006302;28;20042;-52
2022/09/06 02:46:36;;;;;;;3.08;2.55;;;22.30;63.20;;;;;;5003210;28;20057;-49
2022/09/06 02:49:03;;;;;;;2.78;2.58;;;22.20;63.20;;;;;;5011064;28;20545;-52
2022/09/06 02:51:29;;;;;;;3.15;2.60;;;22.20;63.50;;;;;;4998895;28;20092;-50
2022/09/06 02:53:57;;;;;;;2.83;2.63;;;22.20;63.60;;;;;;5000780;28;20041;-53
2022/09/06 02:56:24;;;;;;;2.60;2.40;;;22.20;63.50;;;;;;4997741;28;20376;-53
2022/09/06 02:58:53;;;;;;;2.92;2.55;;;22.20;63.50;;;;;;4988745;28;20034;-52
2022/09/06 03:01:24;;;;;;;4.85;3.05;;;22.20;63.90;;;;;;4991982;28;20070;-52
2022/09/06 03:03:51;;;;;;;2.50;2.30;;;22.20;63.70;;;;;;5007023;28;20050;-52
2022/09/06 03:06:20;;;;;;;2.63;2.42;;;22.20;63.70;;;;;;5005217;28;20093;-53
2022/09/06 03:08:50;;;;;;;2.40;2.20;;;22.20;63.90;;;;;;4995458;28;20084;-49
2022/09/06 03:11:19;;;;;;;4.45;2.97;;;22.20;63.90;;;;;;5000612;28;20096;-50
2022/09/06 03:13:45;;;;;;;3.55;2.58;;;22.20;64.20;;;;;;5000032;28;20494;-53
2022/09/06 03:16:13;;;;;;;4.68;2.78;;;22.20;63.90;;;;;;4997723;28;20600;-52
2022/09/06 03:18:40;;;;;;;3.38;3.08;;;22.20;63.90;;;;;;4996979;28;20760;-50
2022/09/06 03:21:07;;;;;;;3.72;3.28;;;22.20;64.10;;;;;;5003163;28;20576;-51
2022/09/06 03:23:38;;;;;;;3.50;2.70;;;22.10;63.90;;;;;;5001781;28;20050;-54
2022/09/06 03:26:06;;;;;;;2.83;2.63;;;22.10;64.10;;;;;;4989199;28;20558;-53
2022/09/06 03:28:35;;;;;;;2.50;2.20;;;22.10;64.30;;;;;;4996416;28;20569;-50
2022/09/06 03:31:06;;;;;;;3.17;2.97;;;22.10;64.40;;;;;;5001714;28;20060;-49
2022/09/06 03:33:33;;;;;;;2.92;2.70;;;22.10;64.20;;;;;;5003764;28;20132;-53
2022/09/06 03:36:08;;;;;;;2.35;2.10;;;22.10;64.50;;;;;;5008286;28;20096;-52
2022/09/06 03:38:37;;;;;;;2.85;2.42;;;22.10;64.40;;;;;;4980533;28;20038;-48
2022/09/06 03:41:11;;;;;;;2.95;2.63;;;22.00;64.20;;;;;;4997585;28;20061;-52
2022/09/06 03:43:38;;;;;;;3.65;2.55;;;22.00;64.10;;;;;;4990613;28;20038;-53
2022/09/06 03:46:07;;;;;;;2.67;2.47;;;22.00;64.00;;;;;;4990014;28;20566;-51
2022/09/06 03:48:34;;;;;;;3.50;3.10;;;22.00;64.00;;;;;;4997407;28;20538;-51
2022/09/06 03:51:03;;;;;;;2.97;2.67;;;21.90;64.00;;;;;;5001388;28;20100;-51
2022/09/06 03:53:30;;;;;;;5.47;3.80;;;21.80;63.90;;;;;;5000548;28;20041;-51
2022/09/06 03:55:57;;;;;;;2.95;2.75;;;21.80;64.00;;;;;;4993738;28;20529;-53
2022/09/06 03:58:29;;;;;;;3.30;3.05;;;21.80;64.10;;;;;;4995138;28;20035;-50
2022/09/06 04:01:03;;;;;;;2.90;2.55;;;21.70;64.40;;;;;;4994096;28;20046;-51
2022/09/06 04:03:31;;;;;;;4.65;3.35;;;21.60;64.50;;;;;;5004295;28;20065;-53
2022/09/06 04:05:58;;;;;;;3.47;3.25;;;21.60;64.10;;;;;;4976777;28;20046;-53
2022/09/06 04:08:25;;;;;;;3.30;2.95;;;21.60;64.20;;;;;;5005645;28;20104;-50
2022/09/06 04:10:54;;;;;;;3.78;3.17;;;21.50;64.20;;;;;;5005474;28;20458;-51
2022/09/06 04:13:25;;;;;;;3.90;3.10;;;21.40;64.40;;;;;;5012198;28;20050;-50
2022/09/06 04:15:55;;;;;;;3.20;2.92;;;21.40;64.60;;;;;;5000051;28;20037;-48
2022/09/06 04:18:24;;;;;;;3.85;3.55;;;21.40;64.60;;;;;;5005409;28;20049;-53
2022/09/06 04:20:54;;;;;;;3.83;3.33;;;21.30;64.80;;;;;;5013335;28;20454;-53
2022/09/06 04:23:23;;;;;;;3.58;3.22;;;21.20;64.70;;;;;;4994022;28;20041;-54
2022/09/06 04:25:55;;;;;;;3.67;3.15;;;21.20;64.80;;;;;;4982340;28;20695;-52
2022/09/06 04:28:23;;;;;;;3.35;3.00;;;21.20;64.80;;;;;;5001693;28;20057;-50
2022/09/06 04:30:54;;;;;;;3.55;3.25;;;21.10;64.40;;;;;;4993651;28;20069;-51
2022/09/06 04:33:33;;;;;;;3.13;2.83;;;21.10;64.50;;;;;;4992860;28;20507;-54
2022/09/06 04:36:04;;;;;;;3.47;3.10;;;21.10;64.70;;;;;;4998748;28;20045;-50
2022/09/06 04:38:35;;;;;;;3.28;2.97;;;21.00;65.30;;;;;;5005335;28;20100;-50
2022/09/06 04:41:03;;;;;;;4.20;3.45;;;21.00;65.90;;;;;;5001087;28;20047;-52
2022/09/06 04:43:30;;;;;;;3.65;3.35;;;20.90;65.00;;;;;;4990040;28;20038;-53
2022/09/06 04:46:19;;;;;;;5.65;4.00;;;20.90;65.10;;;;;;4992071;28;20070;-53
2022/09/06 04:48:48;;;;;;;4.57;3.90;;;20.90;65.70;;;;;;4998246;28;20042;-54
2022/09/06 04:51:14;;;;;;;4.40;3.67;;;20.80;65.30;;;;;;4992714;28;20538;-52
2022/09/06 04:53:41;;;;;;;3.88;3.38;;;20.80;65.30;;;;;;4998982;28;20128;-53
2022/09/06 04:56:14;;;;;;;4.03;3.60;;;20.80;65.40;;;;;;4999689;28;20069;-51
2022/09/06 04:58:44;;;;;;;3.95;3.55;;;20.80;65.80;;;;;;4993348;28;20100;-50
2022/09/06 05:01:14;;;;;;;3.88;3.50;;;20.80;65.70;;;;;;4991591;28;20042;-51
2022/09/06 05:03:40;;;;;;;4.68;3.40;;;20.80;65.80;;;;;;4997096;28;20092;-50
2022/09/06 05:06:20;;;;;;;4.03;3.58;;;20.70;65.40;;;;;;4984552;28;20057;-50
2022/09/06 05:08:47;;;;;;;4.03;3.50;;;20.80;66.30;;;;;;5013344;28;20054;-53
2022/09/06 05:11:15;;;;;;;3.67;3.30;;;20.70;65.50;;;;;;5001131;28;20077;-50
2022/09/06 05:13:41;;;;;;;3.65;3.28;;;20.70;65.50;;;;;;5001788;28;20070;-52
2022/09/06 05:16:09;;;;;;;3.97;2.88;;;20.70;65.30;;;;;;5006752;28;20050;-51
2022/09/06 05:18:36;;;;;;;3.70;3.00;;;20.60;65.20;;;;;;4992189;28;20046;-53
2022/09/06 05:21:02;;;;;;;3.85;3.20;;;20.60;65.00;;;;;;4995256;28;20081;-52
2022/09/06 05:23:32;;;;;;;3.20;2.95;;;20.60;64.90;;;;;;4987037;28;20127;-52
2022/09/06 05:25:58;;;;;;;4.05;3.40;;;20.60;64.80;;;;;;4988842;28;20655;-53
2022/09/06 05:28:25;;;;;;;4.32;3.63;;;20.60;64.80;;;;;;5001427;28;20069;-50
2022/09/06 05:30:52;;;;;;;5.55;3.42;;;20.50;65.00;;;;;;4994965;28;20121;-53
2022/09/06 05:33:21;;;;;;;6.38;3.20;;;20.50;65.10;;;;;;4979601;28;20037;-53
2022/09/06 05:35:48;;;;;;;4.30;3.90;;;20.50;65.30;;;;;;5000517;28;20066;-52
2022/09/06 05:38:15;;;;;;;4.18;3.78;;;20.50;65.30;;;;;;5002108;28;20104;-48
2022/09/06 05:40:42;;;;;;;5.32;3.55;;;20.40;65.20;;;;;;4995952;28;20049;-50
2022/09/06 05:43:09;;;;;;;4.75;3.45;;;20.40;65.20;;;;;;5004703;28;20042;-51
2022/09/06 05:45:35;;;;;;;5.10;3.50;;;20.40;65.30;;;;;;4988982;28;20530;-49
2022/09/06 05:48:02;;;;;;;3.90;3.03;;;20.50;65.60;;;;;;4992944;28;20046;-52
2022/09/06 05:50:29;;;;;;;4.75;3.30;;;20.40;65.80;;;;;;5002567;28;20045;-53
2022/09/06 05:52:56;;;;;;;4.68;3.90;;;20.40;65.90;;;;;;5010643;28;20085;-48
2022/09/06 05:55:28;;;;;;;5.03;3.55;;;20.40;65.90;;;;;;4994510;28;20041;-48
2022/09/06 05:57:54;;;;;;;3.67;3.35;;;20.50;66.00;;;;;;4990161;28;20050;-51
2022/09/06 06:00:21;;;;;;;3.97;3.58;;;20.50;66.10;;;;;;4994080;28;20499;-53
2022/09/06 06:02:48;;;;;;;4.25;3.35;;;20.50;66.30;;;;;;5002253;28;20546;-50
2022/09/06 06:05:15;;;;;;;4.03;3.15;;;20.50;66.30;;;;;;5010337;28;20077;-50
2022/09/06 06:07:42;;;;;;;4.70;3.95;;;20.50;66.30;;;;;;4991796;28;20038;-53
2022/09/06 06:10:09;;;;;;;4.22;3.53;;;20.50;66.30;;;;;;4990091;28;20101;-50
2022/09/06 06:12:36;;;;;;;4.47;3.38;;;20.60;66.50;;;;;;5001971;28;20095;-53
2022/09/06 06:15:05;;;;;;;4.30;3.40;;;20.60;66.60;;;;;;5001214;28;20054;-53
2022/09/06 06:17:32;;;;;;;4.55;3.42;;;20.60;66.60;;;;;;4993554;28;20494;-52
2022/09/06 06:19:58;;;;;;;5.45;4.20;;;20.60;66.70;;;;;;5001204;28;20038;-53
2022/09/06 06:22:25;;;;;;;4.15;3.63;;;20.70;66.70;;;;;;5003208;28;20437;-52
2022/09/06 06:24:52;;;;;;;4.22;3.83;;;20.70;66.70;;;;;;4980692;28;20178;-50
2022/09/06 06:27:19;;;;;;;4.13;3.80;;;20.70;66.90;;;;;;4987172;28;20113;-48
2022/09/06 06:29:45;;;;;;;3.75;3.45;;;20.70;67.00;;;;;;5003393;28;20088;-52
2022/09/06 06:32:12;;;;;;;6.50;4.25;;;20.80;67.00;;;;;;5003220;28;20282;-49
2022/09/06 06:34:39;;;;;;;5.40;4.53;;;20.80;67.10;;;;;;5006195;28;20503;-51
2022/09/06 06:37:08;;;;;;;4.40;3.85;;;20.80;67.20;;;;;;4999150;28;20033;-49
2022/09/06 06:39:35;;;;;;;4.70;4.03;;;20.90;67.40;;;;;;4994683;28;20104;-52
2022/09/06 06:42:02;;;;;;;6.78;5.25;;;20.90;67.40;;;;;;4994217;28;20042;-53
2022/09/06 06:44:39;;;;;;;5.70;4.43;;;20.90;67.40;;;;;;4958334;28;20045;-49
2022/09/06 06:47:06;;;;;;;5.90;4.82;;;21.00;67.50;;;;;;4992329;28;20506;-52
2022/09/06 06:49:33;;;;;;;7.68;5.25;;;21.00;67.40;;;;;;4999711;28;20085;-52
2022/09/06 06:52:00;;;;;;;8.27;6.15;;;21.10;67.60;;;;;;4993630;28;20046;-52
2022/09/06 06:54:27;;;;;;;7.13;6.32;;;21.10;67.50;;;;;;4990112;28;20050;-50
2022/09/06 06:56:54;;;;;;;6.53;5.93;;;21.20;67.50;;;;;;4990578;28;20446;-51
2022/09/06 06:59:20;;;;;;;6.80;5.25;;;21.20;67.30;;;;;;4991558;28;20030;-49
2022/09/06 07:01:49;;;;;;;6.63;6.00;;;21.30;67.40;;;;;;4990537;28;20105;-50
2022/09/06 07:04:16;;;;;;;9.70;5.70;;;21.30;67.20;;;;;;5003456;28;20042;-52
2022/09/06 07:06:51;;;;;;;8.95;5.57;;;21.40;67.30;;;;;;5002859;28;20037;-50
2022/09/06 07:09:38;;;;;;;6.07;5.13;;;21.40;67.50;;;;;;4997627;28;20589;-52
2022/09/06 07:12:24;;;;;;;5.47;4.88;;;21.50;66.90;;;;;;4993647;28;20129;-50
2022/09/06 07:14:51;;;;;;;5.85;5.13;;;21.50;66.80;;;;;;4998496;28;20076;-52
2022/09/06 07:17:18;;;;;;;5.95;4.43;;;21.60;66.60;;;;;;5002509;28;20092;-52
2022/09/06 07:19:45;;;;;;;6.93;4.72;;;21.60;66.50;;;;;;4995793;28;20507;-52
2022/09/06 07:22:31;;;;;;;5.28;3.50;;;21.70;66.40;;;;;;4983833;28;20057;-53
2022/09/06 07:24:58;;;;;;;6.57;3.70;;;21.80;66.40;;;;;;4985270;28;20097;-49
2022/09/06 07:27:24;;;;;;;4.22;3.30;;;21.80;66.10;;;;;;4982440;28;20510;-50
2022/09/06 07:30:13;;;;;;;4.47;3.13;;;21.90;65.90;;;;;;4991414;28;20073;-52
2022/09/06 07:32:39;;;;;;;4.13;2.72;;;21.90;65.60;;;;;;4991666;28;20503;-53
2022/09/06 07:35:07;;;;;;;4.80;2.88;;;22.00;65.40;;;;;;5001341;28;20402;-53
2022/09/06 07:37:34;;;;;;;3.97;3.10;;;22.10;65.40;;;;;;4987356;28;20085;-51
2022/09/06 07:40:02;;;;;;;4.75;2.83;;;22.10;65.40;;;;;;4996431;28;20896;-49
2022/09/06 07:42:30;;;;;;;3.60;3.10;;;22.20;65.30;;;;;;5008636;28;20030;-51
2022/09/06 07:45:03;;;;;;;4.22;3.33;;;22.30;65.30;;;;;;4991435;28;20042;-50
2022/09/06 07:47:30;;;;;;;2.60;2.40;;;22.30;65.10;;;;;;4997688;28;20042;-52
2022/09/06 07:50:17;;;;;;;4.25;2.15;;;22.40;65.10;;;;;;5000264;28;20057;-51
2022/09/06 07:53:08;;;;;;;3.28;2.85;;;22.40;64.80;;;;;;5002520;28;20070;-53
2022/09/06 07:55:41;;;;;;;4.65;2.45;;;22.50;64.80;;;;;;4997522;28;20042;-53
2022/09/06 07:58:08;;;;;;;4.72;3.10;;;22.60;64.80;;;;;;4981702;28;20647;-53
2022/09/06 08:00:35;;;;;;;4.78;2.30;;;22.70;64.70;;;;;;5000265;28;20042;-49
2022/09/06 08:03:01;;;;;;;3.15;1.83;;;22.80;64.30;;;;;;5006245;28;20040;-53
2022/09/06 08:05:28;;;;;;;2.55;2.08;;;22.80;64.10;;;;;;5009071;28;20458;-49
2022/09/06 08:08:15;;;;;;;2.67;2.13;;;22.90;64.30;;;;;;4998436;28;20123;-49
2022/09/06 08:11:02;;;;;;;2.92;1.73;;;22.90;63.80;;;;;;5002364;28;20074;-49
2022/09/06 08:13:29;;;;;;;1.50;1.40;;;23.00;63.10;;;;;;5005833;28;20490;-53
2022/09/06 08:16:04;;;;;;;3.33;1.38;;;23.10;62.80;;;;;;5006483;28;20077;-51
2022/09/06 08:18:33;;;;;;;2.33;1.50;;;23.20;61.60;;;;;;4998799;28;20119;-52
2022/09/06 08:21:14;;;;;;;2.88;1.25;;;23.20;61.40;;;;;;5000838;28;20066;-48
2022/09/06 08:23:52;;;;;;;3.15;1.25;;;23.30;60.90;;;;;;4994112;28;20045;-53
2022/09/06 08:26:21;;;;;;;2.15;1.20;;;23.40;60.00;;;;;;4995065;28;20057;-53
2022/09/06 08:28:56;;;;;;;5.22;1.42;;;23.50;60.50;;;;;;5003236;28;20042;-51
2022/09/06 08:31:23;;;;;;;1.58;1.10;;;23.60;59.80;;;;;;4998229;28;20057;-50
2022/09/06 08:33:56;;;;;;;2.53;1.10;;;23.70;60.00;;;;;;5009891;28;20046;-53
2022/09/06 08:36:26;;;;;;;1.85;1.40;;;23.70;59.50;;;;;;5012678;28;20042;-52
2022/09/06 08:38:52;;;;;;;2.90;1.50;;;23.80;59.50;;;;;;4995914;28;20038;-53
2022/09/06 08:41:29;;;;;;;2.80;1.20;;;23.80;59.00;;;;;;5000812;28;20035;-51
2022/09/06 08:44:02;;;;;;;1.38;1.27;;;23.90;58.70;;;;;;5009834;28;20793;-53
2022/09/06 08:46:54;;;;;;;3.47;1.30;;;24.00;58.30;;;;;;5000050;28;20562;-52
2022/09/06 08:49:24;;;;;;;1.65;1.30;;;24.00;58.00;;;;;;4998795;28;20042;-53
2022/09/06 08:52:05;;;;;;;1.42;1.15;;;24.10;58.20;;;;;;5005049;28;20092;-53
2022/09/06 08:54:55;;;;;;;1.98;1.17;;;24.20;57.80;;;;;;4995960;28;20402;-51
2022/09/06 08:57:54;;;;;;;1.08;1.02;;;24.20;56.80;;;;;;4986753;28;20035;-50
2022/09/06 09:00:22;;;;;;;2.75;1.08;;;24.30;57.00;;;;;;4993217;28;20039;-53
2022/09/06 09:03:15;;;;;;;2.55;1.05;;;24.40;57.30;;;;;;4993839;28;20624;-50
2022/09/06 09:05:47;;;;;;;2.53;1.20;;;24.50;55.30;;;;;;4991751;28;20038;-52
2022/09/06 09:08:28;;;;;;;2.15;1.38;;;24.50;55.80;;;;;;4966395;28;20056;-52
2022/09/06 09:11:00;;;;;;;2.00;0.90;;;24.60;55.30;;;;;;4998588;28;20050;-52
2022/09/06 09:13:41;;;;;;;2.25;0.85;;;24.70;54.70;;;;;;4993473;28;20450;-52
2022/09/06 09:16:08;;;;;;;1.95;0.82;;;24.80;54.50;;;;;;4992764;28;20591;-50
2022/09/06 09:18:41;;;;;;;1.10;1.00;;;24.90;54.50;;;;;;4984277;28;20046;-51
2022/09/06 09:21:08;;;;;;;3.35;1.15;;;25.00;54.00;;;;;;5011446;28;20042;-53
2022/09/06 09:23:36;;;;;;;2.20;1.10;;;25.10;53.70;;;;;;4991404;28;20097;-49
2022/09/06 09:26:08;;;;;;;1.50;1.23;;;25.20;53.60;;;;;;5001110;28;20038;-50
2022/09/06 09:28:37;;;;;;;1.10;1.10;;;25.30;53.30;;;;;;5004846;28;20037;-53
2022/09/06 09:31:04;;;;;;;1.02;0.93;;;25.40;53.20;;;;;;5011594;28;20042;-53
2022/09/06 09:33:35;;;;;;;1.10;1.02;;;25.50;52.60;;;;;;4999834;28;20037;-53
2022/09/06 09:36:15;;;;;;;1.10;0.82;;;25.60;52.60;;;;;;5002178;28;20046;-52
2022/09/06 09:38:45;;;;;;;2.15;1.77;;;25.70;53.00;;;;;;5005339;28;20046;-53
2022/09/06 09:41:33;;;;;;;1.10;1.00;;;25.80;52.30;;;;;;4974716;28;20562;-51
2022/09/06 09:44:02;;;;;;;1.67;0.85;;;25.90;51.80;;;;;;4997038;28;20042;-52
2022/09/06 09:46:35;;;;;;;5.15;1.00;;;26.00;52.10;;;;;;5003779;28;20042;-53
2022/09/06 09:49:10;;;;;;;1.52;1.13;;;26.10;51.90;;;;;;5010511;28;20121;-51
2022/09/06 09:52:02;;;;;;;3.17;1.38;;;26.10;51.90;;;;;;4993547;28;20042;-50
2022/09/06 09:54:31;;;;;;;1.65;1.30;;;26.20;51.50;;;;;;4991503;28;20049;-50
2022/09/06 09:56:58;;;;;;;4.28;1.13;;;26.30;51.70;;;;;;4995499;28;20495;-53
2022/09/06 09:59:46;;;;;;;2.65;1.27;;;26.30;51.30;;;;;;4992757;28;20441;-49
2022/09/06 10:02:28;;;;;;;2.80;1.08;;;26.40;51.10;;;;;;4993500;28;20411;-52
2022/09/06 10:05:06;;;;;;;3.13;1.45;;;26.50;51.00;;;;;;5003082;28;20050;-52
2022/09/06 10:07:33;;;;;;;3.05;1.10;;;26.50;50.70;;;;;;4994301;28;20054;-53
2022/09/06 10:10:09;;;;;;;2.30;1.67;;;26.60;51.60;;;;;;4998427;28;20049;-53
2022/09/06 10:12:38;;;;;;;1.25;1.15;;;26.60;50.80;;;;;;4992736;28;20050;-52
2022/09/06 10:15:07;;;;;;;1.05;1.05;;;26.70;50.80;;;;;;4992644;28;20076;-52
2022/09/06 10:17:36;;;;;;;2.35;1.35;;;26.80;51.20;;;;;;4994873;28;20449;-54
2022/09/06 10:20:07;;;;;;;1.23;1.13;;;26.80;50.90;;;;;;4999394;28;20042;-55
2022/09/06 10:23:11;;;;;;;2.40;1.00;;;26.90;50.80;;;;;;5000604;28;20038;-55
2022/09/06 10:26:03;;;;;;;1.77;1.10;;;27.00;50.80;;;;;;5000430;28;20073;-55
2022/09/06 10:28:33;;;;;;;2.47;1.42;;;27.00;50.70;;;;;;4995609;28;20038;-54
2022/09/06 10:31:14;;;;;;;2.15;1.45;;;27.10;50.40;;;;;;5000244;28;20499;-55
2022/09/06 10:33:47;;;;;;;1.95;1.50;;;27.10;50.30;;;;;;4999584;28;20136;-55
2022/09/06 10:36:19;;;;;;;1.90;1.73;;;27.10;49.80;;;;;;4989530;28;20053;-55
2022/09/06 10:38:57;;;;;;;1.77;1.63;;;27.20;50.20;;;;;;4996566;28;20046;-55
2022/09/06 10:41:54;;;;;;;2.42;1.60;;;27.30;50.00;;;;;;4997971;28;20066;-51
2022/09/06 10:44:36;;;;;;;1.40;1.30;;;27.30;49.80;;;;;;4997212;28;20723;-55
2022/09/06 10:47:14;;;;;;;1.25;1.10;;;27.40;49.80;;;;;;4990669;28;20793;-55
2022/09/06 10:49:48;;;;;;;1.80;1.20;;;27.50;49.60;;;;;;4990038;28;20093;-53
2022/09/06 10:52:23;;;;;;;2.05;1.27;;;27.50;49.90;;;;;;4986965;28;20623;-54
2022/09/06 10:54:54;;;;;;;1.77;1.48;;;27.60;49.60;;;;;;4999098;28;20042;-53
2022/09/06 10:57:32;;;;;;;1.85;1.30;;;27.60;50.00;;;;;;4995280;28;20034;-56
2022/09/06 11:00:19;;;;;;;1.52;1.42;;;27.70;49.60;;;;;;4990399;28;20049;-51
2022/09/06 11:02:54;;;;;;;1.30;1.20;;;27.80;49.70;;;;;;4992928;28;20074;-53
2022/09/06 11:05:45;;;;;;;2.28;1.20;;;27.90;49.60;;;;;;4992511;28;20050;-54
2022/09/06 11:08:24;;;;;;;1.98;1.73;;;28.00;49.70;;;;;;4976352;28;20069;-55
2022/09/06 11:11:18;;;;;;;2.35;1.50;;;28.00;49.20;;;;;;5000552;28;20050;-54
2022/09/06 11:13:45;;;;;;;3.25;1.58;;;28.10;49.30;;;;;;4992439;28;20070;-53
2022/09/06 11:16:16;;;;;;;3.08;1.40;;;28.10;49.50;;;;;;4992155;28;20477;-54
2022/09/06 11:18:46;;;;;;;3.60;2.25;;;28.20;48.90;;;;;;4996857;28;20042;-54
2022/09/06 11:21:47;;;;;;;1.67;1.35;;;28.30;48.50;;;;;;4998871;28;20093;-54
2022/09/06 11:24:37;;;;;;;4.13;1.80;;;28.30;49.00;;;;;;4997192;28;20053;-53
2022/09/06 11:27:30;;;;;;;1.60;1.50;;;28.40;48.40;;;;;;5008493;28;20473;-55
2022/09/06 11:30:00;;;;;;;1.63;1.15;;;28.40;47.90;;;;;;5001385;28;20067;-55
2022/09/06 11:32:36;;;;;;;2.95;1.48;;;28.50;46.90;;;;;;4999411;28;20510;-53
2022/09/06 11:35:19;;;;;;;2.45;1.50;;;28.60;46.60;;;;;;4991903;28;20104;-55
2022/09/06 11:37:50;;;;;;;2.08;1.52;;;28.60;46.50;;;;;;4993373;28;20113;-55
2022/09/06 11:40:23;;;;;;;2.08;1.48;;;28.60;46.40;;;;;;4997212;28;20047;-55
2022/09/06 11:42:50;;;;;;;3.97;1.48;;;28.70;46.20;;;;;;4994994;28;20739;-55
2022/09/06 11:45:41;;;;;;;2.65;1.63;;;28.70;46.20;;;;;;4992161;28;20061;-55
2022/09/06 11:48:22;;;;;;;2.22;1.17;;;28.80;45.50;;;;;;5002857;28;20151;-53
2022/09/06 11:50:52;;;;;;;3.00;1.25;;;28.90;44.80;;;;;;4993166;28;20065;-51
2022/09/06 11:53:21;;;;;;;2.78;1.23;;;28.90;44.70;;;;;;4992967;28;20103;-55
2022/09/06 11:56:10;;;;;;;1.70;1.50;;;28.90;44.40;;;;;;4995482;28;20122;-55
2022/09/06 11:59:21;;;;;;;1.88;1.10;;;29.00;44.60;;;;;;4989257;28;20069;-55
2022/09/06 12:01:54;;;;;;;1.67;1.08;;;29.00;43.30;;;;;;4962435;28;20070;-55
2022/09/06 12:04:21;;;;;;;2.10;1.10;;;29.10;42.10;;;;;;4981706;28;20085;-54
2022/09/06 12:07:08;;;;;;;3.38;1.20;;;29.10;42.10;;;;;;4999185;28;20072;-52
2022/09/06 12:09:39;;;;;;;0.98;0.80;;;29.20;42.00;;;;;;4975655;28;20047;-52
2022/09/06 12:12:07;;;;;;;0.80;0.80;;;29.20;41.90;;;;;;4971125;28;20082;-55
2022/09/06 12:14:40;;;;;;;1.30;1.20;;;29.20;41.50;;;;;;4995322;28;20096;-55
2022/09/06 12:17:07;;;;;;;1.63;1.25;;;29.30;41.20;;;;;;5005592;28;20088;-53
2022/09/06 12:20:04;;;;;;;2.58;1.58;;;29.30;42.20;;;;;;4990041;28;20042;-55
2022/09/06 12:22:39;;;;;;;2.40;1.08;;;29.40;41.70;;;;;;4987079;28;20088;-55
2022/09/06 12:25:34;;;;;;;2.08;1.42;;;29.40;40.80;;;;;;5002585;28;20088;-52
2022/09/06 12:28:08;;;;;;;2.90;1.45;;;29.50;40.20;;;;;;5008112;28;20049;-55
2022/09/06 12:30:41;;;;;;;1.70;0.95;;;29.60;39.20;;;;;;5012707;28;20126;-53
2022/09/06 12:33:35;;;;;;;1.05;1.00;;;29.70;39.40;;;;;;4999206;28;20092;-52
2022/09/06 12:36:16;;;;;;;1.65;1.30;;;29.70;40.00;;;;;;5002358;28;20041;-55
2022/09/06 12:39:07;;;;;;;3.33;1.40;;;29.80;39.90;;;;;;4992515;28;20034;-54
2022/09/06 12:41:46;;;;;;;2.90;1.15;;;29.90;40.30;;;;;;4999886;28;20104;-53
2022/09/06 12:44:14;;;;;;;1.73;1.42;;;30.00;39.90;;;;;;5003594;28;20049;-54
2022/09/06 12:46:47;;;;;;;1.92;1.25;;;30.10;40.10;;;;;;5013467;28;20556;-55
2022/09/06 12:49:18;;;;;;;1.75;1.20;;;30.20;39.40;;;;;;5006114;28;20100;-55
2022/09/06 12:51:45;;;;;;;3.50;1.20;;;30.20;39.40;;;;;;4989921;28;20069;-55
2022/09/06 12:54:19;;;;;;;2.63;1.25;;;30.30;39.50;;;;;;4994323;28;20051;-55
2022/09/06 12:56:47;;;;;;;0.95;0.95;;;30.40;38.30;;;;;;4997487;28;20042;-55
2022/09/06 12:59:18;;;;;;;1.83;1.45;;;30.40;38.70;;;;;;4991416;28;20050;-53
2022/09/06 13:01:59;;;;;;;3.75;1.38;;;30.50;38.10;;;;;;5000203;28;20046;-54
2022/09/06 13:04:32;;;;;;;2.20;1.02;;;30.50;37.80;;;;;;4990381;28;20043;-55
2022/09/06 13:07:01;;;;;;;4.18;1.10;;;30.60;37.90;;;;;;5002240;28;20118;-55
2022/09/06 13:09:29;;;;;;;1.67;0.70;;;30.60;37.90;;;;;;4998445;28;20046;-54
2022/09/06 13:12:05;;;;;;;2.97;1.10;;;30.70;37.60;;;;;;4998739;28;20038;-52
2022/09/06 13:14:34;;;;;;;1.15;0.85;;;30.70;37.10;;;;;;5000443;28;20418;-52
2022/09/06 13:17:00;;;;;;;1.58;1.08;;;30.80;36.80;;;;;;5001280;28;20499;-55
2022/09/06 13:19:33;;;;;;;1.67;1.08;;;30.90;37.10;;;;;;4997719;28;20536;-55